createdAt,value
2022-11-29T00:00:58.429Z,2.00
2022-11-29T00:03:30.630Z,2.00
2022-11-29T00:06:06.781Z,2.00
2022-11-29T00:08:38.727Z,2.00
2022-11-29T00:11:39.800Z,2.00
2022-11-29T00:14:13.087Z,2.00
2022-11-29T00:16:45.487Z,1.90
2022-11-29T00:19:17.286Z,2.00
2022-11-29T00:21:49.157Z,2.00
2022-11-29T00:24:20.962Z,2.00
2022-11-29T00:26:52.719Z,2.00
2022-11-29T00:29:26.609Z,2.00
2022-11-29T00:31:58.538Z,2.00
2022-11-29T00:34:32.476Z,2.00
2022-11-29T00:37:09.151Z,1.90
2022-11-29T00:39:41.266Z,1.90
2022-11-29T00:42:15.717Z,1.90
2022-11-29T00:44:47.524Z,1.90
2022-11-29T00:47:19.301Z,2.00
2022-11-29T00:49:51.126Z,1.90
2022-11-29T00:52:22.875Z,1.90
2022-11-29T00:54:54.572Z,1.90
2022-11-29T00:57:26.322Z,1.90
2022-11-29T01:00:00.505Z,1.90
2022-11-29T01:02:32.296Z,1.90
2022-11-29T01:05:04.136Z,1.90
2022-11-29T01:07:35.938Z,1.90
2022-11-29T01:10:07.963Z,1.90
2022-11-29T01:12:40.120Z,1.90
2022-11-29T01:15:11.945Z,1.90
2022-11-29T01:17:43.762Z,1.90
2022-11-29T01:20:15.710Z,1.90
2022-11-29T01:22:47.511Z,1.90
2022-11-29T01:25:19.593Z,1.90
2022-11-29T01:27:59.974Z,1.80
2022-11-29T01:30:31.749Z,1.80
2022-11-29T01:33:03.621Z,1.80
2022-11-29T01:35:35.370Z,1.80
2022-11-29T01:38:07.179Z,1.80
2022-11-29T01:40:38.870Z,1.80
2022-11-29T01:43:14.420Z,1.80
2022-11-29T01:45:46.156Z,1.80
2022-11-29T01:48:18.401Z,1.80
2022-11-29T01:50:50.802Z,1.80
2022-11-29T01:53:22.700Z,1.80
2022-11-29T01:58:49.535Z,1.80
2022-11-29T02:01:21.364Z,1.80
2022-11-29T02:03:53.542Z,1.80
2022-11-29T02:06:25.609Z,1.80
2022-11-29T02:08:59.513Z,1.80
2022-11-29T02:11:31.189Z,1.80
2022-11-29T02:14:02.912Z,1.80
2022-11-29T02:16:43.142Z,1.70
2022-11-29T02:19:18.153Z,1.70
2022-11-29T02:21:53.388Z,1.70
2022-11-29T02:24:31.209Z,1.80
2022-11-29T02:27:08.945Z,1.70
2022-11-29T02:29:43.443Z,1.70
2022-11-29T02:32:34.086Z,1.70
2022-11-29T02:35:24.329Z,1.70
2022-11-29T02:37:56.011Z,1.70
2022-11-29T02:40:39.717Z,1.70
2022-11-29T02:43:16.605Z,1.70
2022-11-29T02:45:48.371Z,1.70
2022-11-29T02:48:38.664Z,1.70
2022-11-29T02:51:16.451Z,1.70
2022-11-29T02:53:52.277Z,1.70
2022-11-29T02:56:32.465Z,1.70
2022-11-29T02:59:10.256Z,1.60
2022-11-29T03:01:59.392Z,1.70
2022-11-29T03:04:37.914Z,1.70
2022-11-29T03:07:28.158Z,1.70
2022-11-29T03:10:08.569Z,1.60
2022-11-29T03:12:49.140Z,1.60
2022-11-29T03:15:34.718Z,1.60
2022-11-29T03:18:17.076Z,1.60
2022-11-29T03:21:00.367Z,1.60
2022-11-29T03:23:34.880Z,1.60
2022-11-29T03:26:08.692Z,1.60
2022-11-29T03:28:48.779Z,1.60
2022-11-29T03:31:26.284Z,1.60
2022-11-29T03:34:11.009Z,1.60
2022-11-29T03:36:51.171Z,1.60
2022-11-29T03:39:49.155Z,1.60
2022-11-29T03:42:26.256Z,1.60
2022-11-29T03:45:03.815Z,1.60
2022-11-29T03:47:38.082Z,1.60
2022-11-29T03:50:33.375Z,1.50
2022-11-29T03:53:28.157Z,1.60
2022-11-29T03:56:04.743Z,1.50
2022-11-29T03:58:43.360Z,1.50
2022-11-29T04:01:23.904Z,1.50
2022-11-29T04:04:20.072Z,1.50
2022-11-29T04:07:07.112Z,1.40
2022-11-29T04:09:50.909Z,1.40
2022-11-29T04:12:28.127Z,1.30
2022-11-29T04:15:02.694Z,1.30
2022-11-29T04:17:44.900Z,1.30
2022-11-29T04:20:19.643Z,1.30
2022-11-29T04:23:09.978Z,1.30
2022-11-29T04:26:03.444Z,1.30
2022-11-29T04:28:35.122Z,1.30
2022-11-29T04:31:16.096Z,1.30
2022-11-29T04:34:03.946Z,1.30
2022-11-29T04:37:14.003Z,1.30
2022-11-29T04:39:45.690Z,1.30
2022-11-29T04:42:35.920Z,1.30
2022-11-29T04:45:16.840Z,1.30
2022-11-29T04:48:07.245Z,1.20
2022-11-29T04:50:41.717Z,1.30
2022-11-29T04:53:19.543Z,1.20
2022-11-29T04:56:00.156Z,1.20
2022-11-29T04:58:36.321Z,1.20
2022-11-29T05:01:08.070Z,1.20
2022-11-29T05:04:08.589Z,1.20
2022-11-29T05:06:58.394Z,1.10
2022-11-29T05:09:30.128Z,1.20
2022-11-29T05:12:10.296Z,1.10
2022-11-29T05:14:53.971Z,1.20
2022-11-29T05:17:36.785Z,1.10
2022-11-29T05:20:20.656Z,1.10
2022-11-29T05:22:52.399Z,1.10
2022-11-29T05:25:34.937Z,1.10
2022-11-29T05:28:12.501Z,1.10
2022-11-29T05:31:07.426Z,1.10
2022-11-29T05:33:45.354Z,1.10
2022-11-29T05:36:35.511Z,1.10
2022-11-29T05:39:07.207Z,1.10
2022-11-29T05:41:46.544Z,1.10
2022-11-29T05:44:34.402Z,1.10
2022-11-29T05:47:10.080Z,1.10
2022-11-29T05:49:51.222Z,1.10
2022-11-29T05:52:25.874Z,1.10
2022-11-29T05:55:03.824Z,1.10
2022-11-29T05:57:47.632Z,1.10
2022-11-29T06:00:19.698Z,1.10
2022-11-29T06:02:54.592Z,1.10
2022-11-29T06:05:46.877Z,1.10
2022-11-29T06:08:22.802Z,1.00
2022-11-29T06:11:02.973Z,1.00
2022-11-29T06:13:37.634Z,1.00
2022-11-29T06:16:09.549Z,1.00
2022-11-29T06:18:56.634Z,1.00
2022-11-29T06:21:40.306Z,1.00
2022-11-29T06:24:25.728Z,0.90
2022-11-29T06:27:09.968Z,0.90
2022-11-29T06:29:47.744Z,0.90
2022-11-29T06:32:25.296Z,0.90
2022-11-29T06:35:03.110Z,0.90
2022-11-29T06:37:43.536Z,0.80
2022-11-29T06:40:16.068Z,0.80
2022-11-29T06:42:49.002Z,0.80
2022-11-29T06:45:23.306Z,0.80
2022-11-29T06:48:00.371Z,0.80
2022-11-29T06:50:50.896Z,0.80
2022-11-29T06:53:27.292Z,0.80
2022-11-29T06:56:15.061Z,0.80
2022-11-29T06:58:58.742Z,0.80
2022-11-29T07:01:41.158Z,0.80
2022-11-29T07:04:25.918Z,0.80
2022-11-29T07:06:57.949Z,0.80
2022-11-29T07:09:31.734Z,0.80
2022-11-29T07:12:03.637Z,0.80
2022-11-29T07:14:35.836Z,0.80
2022-11-29T07:17:19.009Z,0.80
2022-11-29T07:19:57.344Z,0.80
2022-11-29T07:22:29.080Z,0.80
2022-11-29T07:25:03.368Z,0.80
2022-11-29T07:27:41.638Z,0.70
2022-11-29T07:30:19.066Z,0.80
2022-11-29T07:33:00.640Z,0.80
2022-11-29T07:35:44.570Z,0.80
2022-11-29T07:38:22.430Z,0.80
2022-11-29T07:41:06.823Z,0.80
2022-11-29T07:43:56.907Z,0.80
2022-11-29T07:46:29.272Z,0.80
2022-11-29T07:49:03.231Z,0.80
2022-11-29T07:51:34.982Z,0.80
2022-11-29T07:54:06.717Z,0.80
2022-11-29T07:56:38.461Z,0.80
2022-11-29T07:59:12.957Z,0.80
2022-11-29T08:01:47.145Z,0.80
2022-11-29T08:04:18.907Z,0.80
2022-11-29T08:06:50.931Z,0.80
2022-11-29T08:09:22.776Z,0.80
2022-11-29T08:11:57.075Z,0.80
2022-11-29T08:14:31.356Z,0.80
2022-11-29T08:17:03.259Z,0.80
2022-11-29T08:19:34.980Z,0.80
2022-11-29T08:22:08.952Z,0.80
2022-11-29T08:24:40.848Z,0.80
2022-11-29T08:27:12.677Z,0.80
2022-11-29T08:29:44.469Z,0.80
2022-11-29T08:32:16.248Z,0.80
2022-11-29T08:34:48.166Z,0.80
2022-11-29T08:37:20.071Z,0.80
2022-11-29T08:39:51.857Z,0.90
2022-11-29T08:42:23.959Z,0.90
2022-11-29T08:44:57.809Z,0.80
2022-11-29T08:47:38.439Z,0.90
2022-11-29T08:50:12.339Z,0.90
2022-11-29T08:53:03.949Z,0.90
2022-11-29T08:55:37.223Z,0.90
2022-11-29T08:58:10.571Z,0.90
2022-11-29T09:00:47.230Z,0.90
2022-11-29T09:03:37.833Z,0.90
2022-11-29T09:06:13.902Z,0.90
2022-11-29T09:08:45.901Z,0.90
2022-11-29T09:11:19.864Z,0.90
2022-11-29T09:13:56.537Z,0.90
2022-11-29T09:16:29.488Z,1.00
2022-11-29T09:19:01.448Z,1.00
2022-11-29T09:21:34.926Z,1.00
2022-11-29T09:24:06.962Z,1.00
2022-11-29T09:26:40.798Z,1.00
2022-11-29T09:29:12.648Z,1.00
2022-11-29T09:31:47.366Z,1.10
2022-11-29T09:34:19.194Z,1.10
2022-11-29T09:36:50.941Z,1.10
2022-11-29T09:39:22.769Z,1.10
2022-11-29T09:42:05.425Z,1.10
2022-11-29T09:44:48.877Z,1.10
2022-11-29T09:47:39.545Z,1.10
2022-11-29T09:50:34.416Z,1.20
2022-11-29T09:53:18.400Z,1.20
2022-11-29T09:55:53.034Z,1.20
2022-11-29T09:58:27.921Z,1.20
2022-11-29T10:01:02.805Z,1.20
2022-11-29T10:04:00.760Z,1.20
2022-11-29T10:06:38.939Z,1.20
2022-11-29T10:09:16.823Z,1.20
2022-11-29T10:11:52.301Z,1.10
2022-11-29T10:14:31.388Z,1.20
2022-11-29T10:17:10.131Z,1.20
2022-11-29T10:19:44.737Z,1.20
2022-11-29T10:22:29.042Z,1.20
2022-11-29T10:25:02.654Z,1.20
2022-11-29T10:27:35.786Z,1.20
2022-11-29T10:30:13.261Z,1.30
2022-11-29T10:32:48.974Z,1.20
2022-11-29T10:35:21.301Z,1.30
2022-11-29T10:38:22.741Z,1.30
2022-11-29T10:40:48.153Z,1.30
2022-11-29T10:43:20.107Z,1.30
2022-11-29T10:45:56.196Z,1.30
2022-11-29T10:48:31.867Z,1.30
2022-11-29T10:51:03.676Z,1.30
2022-11-29T10:53:40.908Z,1.30
2022-11-29T10:56:13.045Z,1.40
2022-11-29T10:58:55.038Z,1.40
2022-11-29T11:01:29.124Z,1.40
2022-11-29T11:04:07.427Z,1.40
2022-11-29T11:06:48.456Z,1.40
2022-11-29T11:09:22.624Z,1.40
2022-11-29T11:11:55.885Z,1.40
2022-11-29T11:14:29.510Z,1.40
2022-11-29T11:17:17.053Z,1.40
2022-11-29T11:19:55.928Z,1.40
2022-11-29T11:22:28.589Z,1.40
2022-11-29T11:25:02.087Z,1.40
2022-11-29T11:27:35.355Z,1.50
2022-11-29T11:30:18.102Z,1.40
2022-11-29T11:33:09.365Z,1.40
2022-11-29T11:35:41.113Z,1.40
2022-11-29T11:38:19.368Z,1.40
2022-11-29T11:41:00.649Z,1.40
2022-11-29T11:43:33.116Z,1.40
2022-11-29T11:46:06.863Z,1.40
2022-11-29T11:48:40.490Z,1.40
2022-11-29T11:51:30.462Z,1.40
2022-11-29T11:54:02.392Z,1.40
2022-11-29T11:56:34.876Z,1.40
2022-11-29T11:59:06.789Z,1.40
2022-11-29T12:01:39.239Z,1.40
2022-11-29T12:04:33.884Z,1.50
2022-11-29T12:07:09.875Z,1.50
2022-11-29T12:10:00.366Z,1.50
2022-11-29T12:12:42.284Z,1.50
2022-11-29T12:15:24.487Z,1.50
2022-11-29T12:17:58.069Z,1.50
2022-11-29T12:20:41.020Z,1.50
2022-11-29T12:23:12.779Z,1.40
2022-11-29T12:25:50.964Z,1.40
2022-11-29T12:28:25.491Z,1.40
2022-11-29T12:31:05.975Z,1.40
2022-11-29T12:33:43.370Z,1.40
2022-11-29T12:36:18.576Z,1.40
2022-11-29T12:38:50.580Z,1.40
2022-11-29T12:41:22.333Z,1.40
2022-11-29T12:44:06.140Z,1.40
2022-11-29T12:46:38.620Z,1.40
2022-11-29T12:49:10.422Z,1.40
2022-11-29T12:52:08.425Z,1.40
2022-11-29T12:54:40.175Z,1.40
2022-11-29T12:57:44.398Z,1.40
2022-11-29T13:00:17.846Z,1.40
2022-11-29T13:02:49.656Z,1.40
2022-11-29T13:05:30.865Z,1.40
2022-11-29T13:08:08.723Z,1.40
2022-11-29T13:10:40.452Z,1.30
2022-11-29T13:13:31.639Z,1.30
2022-11-29T13:16:09.410Z,1.30
2022-11-29T13:18:57.712Z,1.40
2022-11-29T13:21:37.393Z,1.40
2022-11-29T13:24:17.693Z,1.40
2022-11-29T13:26:49.681Z,1.40
2022-11-29T13:29:21.721Z,1.40
2022-11-29T13:31:55.589Z,1.40
2022-11-29T13:34:43.994Z,1.40
2022-11-29T13:37:34.857Z,1.40
2022-11-29T13:40:06.683Z,1.50
2022-11-29T13:42:47.617Z,1.40
2022-11-29T13:45:39.048Z,1.40
2022-11-29T13:48:27.775Z,1.50
2022-11-29T13:51:19.716Z,1.50
2022-11-29T13:53:51.988Z,1.50
2022-11-29T13:56:30.011Z,1.50
2022-11-29T13:59:05.806Z,1.40
2022-11-29T14:01:45.318Z,1.40
2022-11-29T14:04:23.047Z,1.40
2022-11-29T14:07:21.378Z,1.40
2022-11-29T14:09:58.419Z,1.40
2022-11-29T14:13:02.984Z,1.40
2022-11-29T14:15:34.810Z,1.40
2022-11-29T14:18:09.979Z,1.40
2022-11-29T14:20:45.314Z,1.30
2022-11-29T14:23:18.269Z,1.30
2022-11-29T14:25:56.348Z,1.30
2022-11-29T14:28:46.168Z,1.30
2022-11-29T14:31:36.541Z,1.30
2022-11-29T14:34:13.119Z,1.30
2022-11-29T14:36:49.530Z,1.30
2022-11-29T14:39:27.368Z,1.30
2022-11-29T14:42:25.677Z,1.30
2022-11-29T14:45:04.736Z,1.30
2022-11-29T14:47:38.894Z,1.30
2022-11-29T14:50:28.668Z,1.30
2022-11-29T14:53:01.057Z,1.20
2022-11-29T14:55:36.920Z,1.30
2022-11-29T14:58:16.483Z,1.30
2022-11-29T15:00:48.214Z,1.30
2022-11-29T15:03:24.462Z,1.30
2022-11-29T15:05:56.242Z,1.30
2022-11-29T15:08:27.949Z,1.20
2022-11-29T15:11:01.850Z,1.20
2022-11-29T15:13:35.151Z,1.30
2022-11-29T15:16:09.860Z,1.30
2022-11-29T15:19:01.842Z,1.30
2022-11-29T15:21:39.659Z,1.30
2022-11-29T15:24:13.175Z,1.30
2022-11-29T15:26:55.341Z,1.20
2022-11-29T15:29:28.087Z,1.20
2022-11-29T15:32:01.019Z,1.20
2022-11-29T15:34:53.443Z,1.20
2022-11-29T15:37:25.135Z,1.20
2022-11-29T15:40:01.671Z,1.20
2022-11-29T15:42:44.175Z,1.20
2022-11-29T15:45:32.839Z,1.20
2022-11-29T15:48:17.131Z,1.20
2022-11-29T15:51:15.298Z,1.20
2022-11-29T15:54:12.200Z,1.20
2022-11-29T15:56:46.497Z,1.20
2022-11-29T15:59:18.298Z,1.20
2022-11-29T16:01:52.454Z,1.10
2022-11-29T16:04:24.540Z,1.10
2022-11-29T16:06:56.770Z,1.10
2022-11-29T16:09:51.564Z,1.10
2022-11-29T16:12:23.380Z,1.10
2022-11-29T16:14:59.175Z,1.10
2022-11-29T16:17:32.032Z,1.10
2022-11-29T16:20:19.521Z,1.10
2022-11-29T16:23:04.636Z,1.10
2022-11-29T16:25:51.297Z,1.10
2022-11-29T16:28:23.487Z,1.10
2022-11-29T16:30:55.280Z,1.10
2022-11-29T16:33:27.356Z,1.10
2022-11-29T16:36:06.244Z,1.10
2022-11-29T16:38:43.521Z,1.00
2022-11-29T16:41:21.458Z,1.00
2022-11-29T16:43:55.268Z,1.00
2022-11-29T16:46:30.793Z,1.00
2022-11-29T16:49:41.184Z,1.00
2022-11-29T16:52:23.517Z,1.00
2022-11-29T16:54:57.626Z,1.00
2022-11-29T16:57:29.977Z,1.00
2022-11-29T17:00:01.820Z,0.90
2022-11-29T17:02:33.638Z,1.00
2022-11-29T17:05:08.848Z,1.00
2022-11-29T17:07:43.977Z,0.90
2022-11-29T17:10:18.529Z,1.00
2022-11-29T17:12:50.517Z,1.00
2022-11-29T17:15:22.274Z,1.00
2022-11-29T17:17:54.064Z,0.90
2022-11-29T17:20:25.795Z,1.00
2022-11-29T17:22:57.860Z,0.90
2022-11-29T17:25:29.598Z,0.90
2022-11-29T17:28:03.601Z,0.90
2022-11-29T17:30:35.336Z,0.90
2022-11-29T17:33:07.086Z,0.90
2022-11-29T17:35:38.903Z,0.90
2022-11-29T17:38:10.733Z,0.90
2022-11-29T17:40:44.949Z,0.90
2022-11-29T17:43:16.834Z,0.90
2022-11-29T17:45:48.663Z,0.90
2022-11-29T17:48:20.840Z,0.90
2022-11-29T17:50:58.897Z,0.90
2022-11-29T17:53:33.989Z,0.90
2022-11-29T17:56:07.246Z,0.90
2022-11-29T17:58:39.658Z,0.90
2022-11-29T18:01:12.728Z,0.90
2022-11-29T18:03:47.992Z,0.90
2022-11-29T18:06:20.977Z,0.90
2022-11-29T18:08:56.224Z,0.90
2022-11-29T18:11:37.520Z,0.90
2022-11-29T18:14:16.393Z,0.90
2022-11-29T18:16:48.320Z,0.90
2022-11-29T18:19:21.379Z,0.90
2022-11-29T18:21:55.623Z,0.90
2022-11-29T18:24:27.420Z,0.90
2022-11-29T18:26:59.218Z,0.90
2022-11-29T18:29:45.889Z,0.80
2022-11-29T18:32:17.697Z,0.80
2022-11-29T18:34:49.530Z,0.80
2022-11-29T18:37:47.397Z,0.80
2022-11-29T18:40:13.612Z,0.80
2022-11-29T18:42:45.450Z,0.80
2022-11-29T18:45:17.313Z,0.80
2022-11-29T18:47:49.074Z,0.80
2022-11-29T18:50:20.849Z,0.80
2022-11-29T18:52:55.820Z,0.80
2022-11-29T18:55:27.983Z,0.70
2022-11-29T18:57:59.738Z,0.80
2022-11-29T19:00:31.795Z,0.80
2022-11-29T19:03:05.768Z,0.80
2022-11-29T19:05:37.746Z,0.80
2022-11-29T19:08:09.578Z,0.80
2022-11-29T19:10:44.837Z,0.80
2022-11-29T19:13:16.621Z,0.80
2022-11-29T19:15:51.894Z,0.80
2022-11-29T19:18:23.686Z,0.80
2022-11-29T19:21:08.438Z,0.70
2022-11-29T19:23:41.039Z,0.70
2022-11-29T19:26:13.887Z,0.60
2022-11-29T19:28:46.088Z,0.60
2022-11-29T19:31:19.257Z,0.60
2022-11-29T19:33:52.598Z,0.60
2022-11-29T19:36:24.497Z,0.60
2022-11-29T19:38:58.868Z,0.60
2022-11-29T19:41:32.053Z,0.60
2022-11-29T19:44:05.603Z,0.60
2022-11-29T19:46:41.790Z,0.60
2022-11-29T19:49:13.640Z,0.60
2022-11-29T19:51:47.799Z,0.60
2022-11-29T19:54:19.570Z,0.60
2022-11-29T19:56:55.767Z,0.60
2022-11-29T19:59:27.490Z,0.60
2022-11-29T20:01:59.748Z,0.60
2022-11-29T20:04:31.511Z,0.50
2022-11-29T20:07:03.373Z,0.50
2022-11-29T20:09:35.128Z,0.50
2022-11-29T20:12:06.957Z,0.50
2022-11-29T20:14:38.776Z,0.50
2022-11-29T20:17:10.700Z,0.50
2022-11-29T20:19:45.121Z,0.50
2022-11-29T20:22:17.338Z,0.50
2022-11-29T20:24:49.096Z,0.50
2022-11-29T20:27:21.158Z,0.50
2022-11-29T20:29:52.920Z,0.50
2022-11-29T20:32:24.754Z,0.50
2022-11-29T20:34:56.680Z,0.50
2022-11-29T20:37:36.081Z,0.50
2022-11-29T20:40:10.133Z,0.50
2022-11-29T20:42:44.018Z,0.50
2022-11-29T20:45:16.289Z,0.50
2022-11-29T20:48:00.818Z,0.50
2022-11-29T20:50:32.823Z,0.50
2022-11-29T20:53:30.184Z,0.50
2022-11-29T20:56:04.821Z,0.50
2022-11-29T20:58:38.649Z,0.40
2022-11-29T21:01:10.512Z,0.50
2022-11-29T21:03:42.469Z,0.50
2022-11-29T21:06:14.322Z,0.50
2022-11-29T21:08:46.437Z,0.50
2022-11-29T21:11:20.784Z,0.40
2022-11-29T21:13:55.733Z,0.50
2022-11-29T21:16:33.112Z,0.50
2022-11-29T21:19:05.194Z,0.50
2022-11-29T21:21:44.741Z,0.50
2022-11-29T21:24:27.443Z,0.50
2022-11-29T21:26:59.407Z,0.50
2022-11-29T21:29:31.454Z,0.50
2022-11-29T21:32:11.273Z,0.50
2022-11-29T21:34:46.335Z,0.50
2022-11-29T21:37:22.093Z,0.50
2022-11-29T21:39:55.103Z,0.50
2022-11-29T21:42:26.841Z,0.50
2022-11-29T21:44:58.952Z,0.50
2022-11-29T21:47:31.473Z,0.50
2022-11-29T21:50:03.431Z,0.40
2022-11-29T21:52:35.184Z,0.50
2022-11-29T21:55:07.167Z,0.50
2022-11-29T21:57:39.028Z,0.50
2022-11-29T22:00:13.481Z,0.50
2022-11-29T22:02:45.355Z,0.50
2022-11-29T22:05:19.552Z,0.50
2022-11-29T22:07:55.142Z,0.50
2022-11-29T22:10:28.101Z,0.50
2022-11-29T22:12:59.810Z,0.50
2022-11-29T22:15:32.089Z,0.50
2022-11-29T22:18:03.949Z,0.50
2022-11-29T22:20:35.728Z,0.50
2022-11-29T22:23:07.467Z,0.50
2022-11-29T22:25:39.211Z,0.50
2022-11-29T22:28:13.172Z,0.50
2022-11-29T22:30:47.059Z,0.50
2022-11-29T22:33:18.753Z,0.50
2022-11-29T22:35:50.518Z,0.50
2022-11-29T22:38:22.230Z,0.50
2022-11-29T22:40:56.164Z,0.50
2022-11-29T22:43:28.416Z,0.50
2022-11-29T22:46:04.206Z,0.50
2022-11-29T22:48:38.921Z,0.50
2022-11-29T22:51:12.746Z,0.50
2022-11-29T22:53:48.985Z,0.50
2022-11-29T22:56:21.651Z,0.50
2022-11-29T22:58:53.556Z,0.50
2022-11-29T23:01:26.628Z,0.50
2022-11-29T23:03:59.601Z,0.50
2022-11-29T23:06:32.655Z,0.50
2022-11-29T23:09:15.244Z,0.50
2022-11-29T23:11:51.127Z,0.50
2022-11-29T23:14:23.389Z,0.50
2022-11-29T23:16:55.368Z,0.50
2022-11-29T23:19:27.240Z,0.50
2022-11-29T23:21:58.988Z,0.60
2022-11-29T23:24:30.890Z,0.60
2022-11-29T23:27:07.520Z,0.60
2022-11-29T23:29:39.216Z,0.60
2022-11-29T23:32:11.062Z,0.50
2022-11-29T23:34:42.751Z,0.50
2022-11-29T23:37:14.594Z,0.50
2022-11-29T23:39:46.296Z,0.50
2022-11-29T23:42:18.066Z,0.50
2022-11-29T23:44:49.780Z,0.50
2022-11-29T23:47:24.071Z,0.50
2022-11-29T23:49:55.776Z,0.50
2022-11-29T23:52:27.531Z,0.50
2022-11-29T23:54:59.300Z,0.50
2022-11-29T23:57:31.563Z,0.50
